Time;durP1;ratioP1;P1;durP2;ratioP2;P2;SDS_P1;SDS_P2;PMS_P1;PMS_P2;Temp;Humidity;BMP_temperature;BMP_pressure;BME280_temperature;BME280_humidity;BME280_pressure;Samples;Min_cycle;Max_cycle;Signal;HPM_P1;HPM_P2
2021/06/12 00:02:10;;;;;;;7.00;5.15;;;;;;;17.63;73.10;98836.03;5105288;28;20027;-86
2021/06/12 00:04:36;;;;;;;5.28;4.88;;;;;;;17.58;73.13;98845.13;5095911;28;20063;-82
2021/06/12 00:07:01;;;;;;;9.38;5.38;;;;;;;17.51;73.19;98844.84;5092239;28;20043;-84
2021/06/12 00:09:27;;;;;;;5.45;4.90;;;;;;;17.48;73.17;98852.81;5092943;28;20414;-82
2021/06/12 00:11:54;;;;;;;5.85;5.35;;;;;;;17.43;73.20;98837.59;5111493;28;20067;-87
2021/06/12 00:14:19;;;;;;;8.88;4.75;;;;;;;17.33;73.14;98837.97;5100492;28;20089;-83
2021/06/12 00:16:45;;;;;;;5.53;4.93;;;;;;;17.30;73.08;98842.13;5106429;28;20031;-84
2021/06/12 00:19:10;;;;;;;4.82;4.43;;;;;;;17.27;73.39;98838.16;5103016;28;20063;-87
2021/06/12 00:21:36;;;;;;;5.95;4.38;;;;;;;17.19;73.44;98830.88;5096342;28;20027;-83
2021/06/12 00:24:09;;;;;;;6.03;5.43;;;;;;;17.23;73.22;98836.44;5092182;28;20126;-85
2021/06/12 00:26:35;;;;;;;4.60;4.30;;;;;;;17.23;73.36;98837.22;5093935;28;20123;-86
2021/06/12 00:29:01;;;;;;;5.22;4.72;;;;;;;17.21;73.15;98842.16;5104752;28;20051;-79
2021/06/12 00:31:27;;;;;;;6.82;5.13;;;;;;;17.17;72.67;98829.63;5101113;28;20055;-85
2021/06/12 00:33:53;;;;;;;5.13;4.57;;;;;;;17.19;72.90;98835.50;5110017;28;20117;-81
2021/06/12 00:36:21;;;;;;;5.25;4.75;;;;;;;17.19;72.91;98836.28;5110630;28;20027;-81
2021/06/12 00:38:48;;;;;;;6.75;4.60;;;;;;;17.18;72.72;98828.50;5090691;28;20115;-80
2021/06/12 00:41:13;;;;;;;5.70;5.20;;;;;;;17.17;72.86;98829.63;5105885;28;20023;-82
2021/06/12 00:43:41;;;;;;;8.13;5.22;;;;;;;17.18;72.58;98826.59;5097150;28;20027;-85
2021/06/12 00:46:07;;;;;;;4.90;4.47;;;;;;;17.16;72.87;98828.03;5091040;28;20476;-86
2021/06/12 00:48:32;;;;;;;7.68;4.72;;;;;;;17.19;72.84;98832.81;5095569;28;20032;-89
2021/06/12 00:50:58;;;;;;;5.05;4.55;;;;;;;17.17;72.45;98835.03;5109581;28;20493;-85
2021/06/12 00:53:41;;;;;;;9.57;4.50;;;;;;;17.17;72.81;98832.31;5108474;28;20032;-87
2021/06/12 00:56:10;;;;;;;6.53;5.15;;;;;;;17.17;72.31;98832.31;5101854;28;20020;-85
2021/06/12 00:58:36;;;;;;;;;;;;;;;17.19;72.67;98840.91;5109881;28;20058;-84
2021/06/12 01:01:03;;;;;;;6.22;4.75;;;;;;;17.16;72.31;98834.22;5103976;28;19918;-89
2021/06/12 01:03:29;;;;;;;6.75;4.75;;;;;;;17.13;72.20;98834.88;5092098;28;20111;-85
2021/06/12 01:05:56;;;;;;;6.63;4.70;;;;;;;17.13;72.43;98840.28;5089598;28;20448;-81
2021/06/12 01:08:22;;;;;;;8.18;4.85;;;;;;;17.13;72.03;98834.88;5099509;28;20077;-80
2021/06/12 01:10:47;;;;;;;6.20;4.30;;;;;;;17.10;71.95;98830.94;5106700;28;20023;-82
2021/06/12 01:13:37;;;;;;;4.97;4.00;;;;;;;17.11;72.11;98840.63;5103876;28;20032;-84
2021/06/12 01:16:09;;;;;;;5.03;4.50;;;;;;;17.10;71.95;98833.63;5102439;28;20512;-86
2021/06/12 01:18:37;;;;;;;4.93;4.05;;;;;;;17.06;72.12;98832.66;5095284;28;20040;-80
2021/06/12 01:21:06;;;;;;;3.50;3.17;;;;;;;17.05;71.36;98833.81;5093425;28;20051;-80
2021/06/12 01:23:54;;;;;;;6.30;3.30;;;;;;;17.03;71.50;98829.81;5097721;28;20529;-85
2021/06/12 01:26:52;;;;;;;6.80;3.38;;;;;;;17.01;71.55;98832.84;5104962;28;20518;-83
2021/06/12 01:29:27;;;;;;;3.78;3.47;;;;;;;16.98;71.38;98830.81;5097385;28;20040;-82
2021/06/12 01:31:55;;;;;;;5.95;3.80;;;;;;;16.98;71.76;98830.81;5090980;28;20394;-80
2021/06/12 01:34:22;;;;;;;4.53;3.53;;;;;;;16.96;71.62;98828.41;5108371;28;20041;-81
2021/06/12 01:36:49;;;;;;;4.63;3.58;;;;;;;16.96;71.18;98830.34;5104185;28;20035;-82
2021/06/12 01:39:19;;;;;;;5.47;3.50;;;;;;;16.94;71.44;98822.56;5091452;28;20693;-79
2021/06/12 01:41:46;;;;;;;5.63;3.55;;;;;;;16.94;71.33;98829.88;5099147;28;20479;-83
2021/06/12 01:44:12;;;;;;;3.50;3.22;;;;;;;16.92;71.08;98832.91;5089699;28;20024;-84
2021/06/12 01:46:39;;;;;;;6.82;3.25;;;;;;;16.91;70.89;98825.88;5093336;28;20027;-84
2021/06/12 01:49:07;;;;;;;6.07;3.75;;;;;;;16.91;70.96;98833.19;5113977;28;20032;-84
2021/06/12 01:51:34;;;;;;;4.30;3.40;;;;;;;16.89;71.01;98827.31;5100656;28;20103;-84
2021/06/12 01:54:02;;;;;;;4.20;3.70;;;;;;;16.87;71.10;98833.06;5091118;28;20537;-81
2021/06/12 01:56:29;;;;;;;3.33;3.03;;;;;;;16.85;71.22;98831.78;5092830;28;20062;-84
2021/06/12 01:58:55;;;;;;;8.23;2.83;;;;;;;16.83;71.61;98831.31;5098445;28;20273;-80
2021/06/12 02:01:22;;;;;;;6.95;3.45;;;;;;;16.76;71.39;98823.69;5101112;28;20468;-83
2021/06/12 02:03:49;;;;;;;4.30;3.47;;;;;;;16.77;71.59;98826.09;5093851;28;20035;-82
2021/06/12 02:06:16;;;;;;;4.80;3.65;;;;;;;16.77;71.69;98826.09;5090943;28;20404;-82
2021/06/12 02:08:47;;;;;;;6.27;3.87;;;;;;;16.78;71.83;98824.16;5112039;28;20085;-81
2021/06/12 02:11:15;;;;;;;4.30;3.58;;;;;;;16.77;71.57;98823.38;5089605;28;20798;-82
2021/06/12 02:13:41;;;;;;;4.15;3.28;;;;;;;16.78;71.98;98826.88;5105973;28;20070;-83
2021/06/12 02:16:08;;;;;;;4.25;3.45;;;;;;;16.79;71.85;98834.63;5093281;28;20027;-82
2021/06/12 02:18:35;;;;;;;3.60;3.28;;;;;;;16.80;71.96;98827.34;5102318;28;20027;-80
2021/06/12 02:21:01;;;;;;;8.40;3.90;;;;;;;16.80;72.09;98836.22;5097600;28;20085;-81
2021/06/12 02:23:28;;;;;;;6.45;3.40;;;;;;;16.82;71.94;98833.22;5101386;28;20111;-81
2021/06/12 02:25:54;;;;;;;4.35;3.88;;;;;;;16.80;71.88;98833.53;5110921;28;20055;-82
2021/06/12 02:28:23;;;;;;;4.32;3.90;;;;;;;16.77;72.10;98828.78;5108587;28;20066;-84
2021/06/12 02:30:53;;;;;;;5.47;3.45;;;;;;;16.81;72.02;98835.13;5105933;28;20028;-84
2021/06/12 02:33:21;;;;;;;4.07;3.67;;;;;;;16.83;71.92;98828.59;5096718;28;20028;-81
2021/06/12 02:35:47;;;;;;;5.88;3.60;;;;;;;16.81;72.22;98839.75;5097371;28;20024;-85
2021/06/12 02:38:12;;;;;;;5.13;3.55;;;;;;;16.84;72.29;98841.78;5102085;28;20078;-85
2021/06/12 02:40:38;;;;;;;5.30;3.90;;;;;;;16.86;72.24;98841.47;5093909;28;20064;-85
2021/06/12 02:43:03;;;;;;;6.60;4.95;;;;;;;16.86;72.34;98846.88;5112242;28;20031;-85
2021/06/12 02:45:30;;;;;;;5.30;3.97;;;;;;;16.87;72.19;98849.25;5110104;28;20386;-78
2021/06/12 02:47:59;;;;;;;4.97;4.47;;;;;;;16.87;72.23;98849.25;5104566;28;20039;-76
2021/06/12 02:50:27;;;;;;;9.93;5.85;;;;;;;16.88;72.33;98850.03;5107347;28;20039;-77
2021/06/12 02:52:54;;;;;;;;;;;;;;;16.90;72.67;98856.69;5103891;28;20034;-81
2021/06/12 02:55:21;;;;;;;4.53;4.13;;;;;;;16.89;72.29;98857.81;5101546;28;20301;-77
2021/06/12 02:57:48;;;;;;;6.05;4.07;;;;;;;16.84;73.06;98859.91;5113093;28;20024;-79
2021/06/12 03:00:17;;;;;;;6.30;4.65;;;;;;;16.83;73.21;98852.91;5100618;28;20035;-80
2021/06/12 03:02:44;;;;;;;7.93;4.55;;;;;;;16.73;74.33;98846.72;5097736;28;20029;-81
2021/06/12 03:05:22;;;;;;;12.93;5.35;;;;;;;16.76;74.82;98858.78;5095786;28;20088;-80
2021/06/12 03:07:50;;;;;;;6.43;4.57;;;;;;;16.75;75.13;98860.72;5104513;28;20038;-85
2021/06/12 03:10:17;;;;;;;12.00;7.40;;;;;;;16.74;75.80;98866.44;5099673;28;20088;-78
2021/06/12 03:12:46;;;;;;;7.25;6.18;;;;;;;16.72;76.34;98868.66;5104267;28;20031;-80
2021/06/12 03:15:13;;;;;;;8.43;6.50;;;;;;;16.72;76.76;98876.75;5112394;28;20064;-80
2021/06/12 03:17:38;;;;;;;7.75;5.78;;;;;;;16.70;76.40;98877.09;5105574;28;20030;-78
2021/06/12 03:20:06;;;;;;;7.60;6.13;;;;;;;16.68;76.86;98868.50;5100123;27;20036;-81
2021/06/12 03:22:34;;;;;;;10.93;6.20;;;;;;;16.74;77.00;98877.25;5101856;28;20110;-81
2021/06/12 03:25:01;;;;;;;10.67;6.17;;;;;;;16.78;76.53;98876.28;5108970;28;20043;-80
2021/06/12 03:27:27;;;;;;;5.93;5.32;;;;;;;16.79;76.52;98880.56;5097284;28;20039;-78
2021/06/12 03:29:53;;;;;;;7.93;5.65;;;;;;;16.83;76.52;98880.69;5093839;28;20028;-80
2021/06/12 03:32:18;;;;;;;8.98;5.88;;;;;;;16.85;75.95;98877.69;5104186;28;20031;-79
2021/06/12 03:34:45;;;;;;;7.65;5.53;;;;;;;16.89;76.12;98878.63;5093542;28;20028;-80
2021/06/12 03:37:12;;;;;;;10.20;6.03;;;;;;;16.94;75.90;98881.19;5106202;28;20024;-77
2021/06/12 03:39:37;;;;;;;9.20;5.53;;;;;;;16.98;76.44;98890.25;5131423;27;20015;-78
2021/06/12 03:42:04;;;;;;;5.75;4.97;;;;;;;17.04;75.84;98880.03;5109761;28;20471;-78
2021/06/12 03:44:30;;;;;;;6.68;5.47;;;;;;;17.07;75.71;98887.50;5111838;28;20058;-78
2021/06/12 03:46:56;;;;;;;6.57;5.45;;;;;;;17.12;75.55;98887.34;5103598;28;20031;-83
2021/06/12 03:49:22;;;;;;;7.00;5.05;;;;;;;17.18;75.49;98890.66;5096420;28;20023;-79
2021/06/12 03:51:48;;;;;;;5.22;4.72;;;;;;;17.23;75.03;98887.78;5098754;28;20027;-78
2021/06/12 03:54:15;;;;;;;11.60;5.13;;;;;;;17.27;74.43;98888.69;5098415;28;20055;-78
2021/06/12 03:56:42;;;;;;;5.53;4.82;;;;;;;17.31;74.16;98889.66;5100317;28;20455;-78
2021/06/12 03:59:09;;;;;;;7.30;4.73;;;;;;;17.34;74.26;98886.28;5101353;28;20114;-78
2021/06/12 04:01:35;;;;;;;9.20;6.15;;;;;;;17.39;74.07;98896.13;5094932;27;20028;-78
2021/06/12 04:04:00;;;;;;;8.68;4.05;;;;;;;17.40;73.65;98898.50;5106210;28;20034;-78
2021/06/12 04:06:26;;;;;;;6.90;5.10;;;;;;;17.46;73.66;98901.03;5094141;28;20395;-80
2021/06/12 04:08:51;;;;;;;7.03;3.95;;;;;;;17.49;74.00;98897.66;5099274;28;20027;-77
2021/06/12 04:11:17;;;;;;;16.08;7.90;;;;;;;17.53;73.82;98895.91;5102265;28;20015;-77
2021/06/12 04:13:43;;;;;;;6.20;4.82;;;;;;;17.59;73.79;98897.31;5112252;28;20486;-77
2021/06/12 04:16:09;;;;;;;6.35;4.32;;;;;;;17.67;73.97;98893.75;5107559;28;20035;-78
2021/06/12 04:18:35;;;;;;;5.88;4.22;;;;;;;17.77;74.34;98898.00;5101192;28;20137;-78
2021/06/12 04:21:01;;;;;;;4.63;4.22;;;;;;;17.90;73.90;98896.94;5101771;28;20402;-77
2021/06/12 04:23:26;;;;;;;5.47;4.55;;;;;;;18.03;74.10;98895.16;5092013;27;20028;-79
2021/06/12 04:25:52;;;;;;;5.97;4.13;;;;;;;18.15;73.59;98896.34;5099150;28;20103;-77
2021/06/12 04:28:17;;;;;;;7.18;4.60;;;;;;;18.28;73.82;98905.31;5094360;28;20027;-79
2021/06/12 04:30:43;;;;;;;5.28;4.20;;;;;;;18.37;73.17;98906.03;5103003;28;20023;-77
2021/06/12 04:33:08;;;;;;;6.32;4.45;;;;;;;18.49;72.87;98910.72;5108422;28;20114;-80
2021/06/12 04:35:34;;;;;;;6.15;4.45;;;;;;;18.58;72.88;98905.22;5103514;28;20032;-80
2021/06/12 04:38:00;;;;;;;7.68;4.40;;;;;;;18.69;72.74;98917.25;5093756;28;20066;-79
2021/06/12 04:40:29;;;;;;;4.53;3.83;;;;;;;18.79;72.83;98914.09;5108627;28;20039;-80
2021/06/12 04:42:54;;;;;;;6.18;4.32;;;;;;;18.88;72.80;98914.81;5097228;28;20122;-77
2021/06/12 04:45:20;;;;;;;6.50;3.97;;;;;;;18.96;72.37;98910.47;5097047;28;20084;-77
2021/06/12 04:47:45;;;;;;;7.82;4.43;;;;;;;19.08;72.39;98919.72;5096396;28;20032;-77
2021/06/12 04:50:11;;;;;;;7.07;5.63;;;;;;;19.13;71.23;98908.69;5097265;28;20027;-79
2021/06/12 04:52:37;;;;;;;8.13;5.55;;;;;;;19.14;71.03;98915.66;5102461;28;20517;-78
2021/06/12 04:55:05;;;;;;;6.45;5.50;;;;;;;19.25;71.04;98919.56;5101336;28;20031;-81
2021/06/12 04:57:31;;;;;;;5.70;5.05;;;;;;;19.30;70.52;98919.31;5100205;28;20036;-79
2021/06/12 04:59:57;;;;;;;6.18;5.38;;;;;;;19.41;70.83;98918.88;5105608;28;20036;-81
2021/06/12 05:02:22;;;;;;;6.25;4.57;;;;;;;19.58;70.79;98917.84;5110414;27;20176;-85
2021/06/12 05:04:47;;;;;;;6.00;4.70;;;;;;;19.77;69.90;98922.72;5108310;28;20031;-85
2021/06/12 05:07:13;;;;;;;5.20;4.80;;;;;;;19.93;69.50;98920.13;5092385;27;20039;-84
2021/06/12 05:09:38;;;;;;;4.53;4.13;;;;;;;20.10;68.53;98925.31;5104913;28;20028;-83
2021/06/12 05:12:04;;;;;;;4.85;4.35;;;;;;;20.28;67.87;98925.81;5098247;28;20039;-84
2021/06/12 05:14:30;;;;;;;6.38;3.95;;;;;;;20.45;67.26;98932.91;5110173;28;20023;-82
2021/06/12 05:16:55;;;;;;;4.15;3.75;;;;;;;20.59;66.65;98929.81;5102852;28;20034;-82
2021/06/12 05:19:21;;;;;;;5.68;4.05;;;;;;;20.67;66.03;98938.16;5096000;28;20098;-78
2021/06/12 05:21:47;;;;;;;5.95;3.90;;;;;;;20.76;65.89;98934.19;5100913;28;20115;-80
2021/06/12 05:24:13;;;;;;;5.63;4.25;;;;;;;20.79;65.12;98936.19;5097741;28;20028;-79
2021/06/12 05:26:41;;;;;;;8.25;4.45;;;;;;;20.79;64.15;98938.13;5104443;28;20039;-79
2021/06/12 05:29:07;;;;;;;5.53;4.28;;;;;;;20.71;64.63;98939.03;5090110;28;20016;-82
2021/06/12 05:31:33;;;;;;;5.95;4.63;;;;;;;20.68;64.89;98937.00;5094168;28;20031;-82
2021/06/12 05:33:58;;;;;;;5.13;4.63;;;;;;;20.68;65.00;98932.38;5105147;28;20043;-82
2021/06/12 05:36:25;;;;;;;5.10;4.18;;;;;;;20.69;65.11;98944.00;5092047;28;20039;-79
2021/06/12 05:38:51;;;;;;;3.60;3.30;;;;;;;20.67;65.26;98936.22;5091370;28;20062;-82
2021/06/12 05:41:16;;;;;;;6.20;3.83;;;;;;;20.69;64.79;98941.28;5109770;28;20059;-81
2021/06/12 05:43:42;;;;;;;5.78;3.67;;;;;;;20.72;64.66;98940.66;5109051;28;20020;-82
2021/06/12 05:46:08;;;;;;;3.90;3.60;;;;;;;20.67;64.63;98944.38;5097086;28;20123;-78
2021/06/12 05:48:33;;;;;;;4.00;3.58;;;;;;;20.68;64.51;98945.94;5090295;28;20112;-79
2021/06/12 05:50:59;;;;;;;3.42;2.90;;;;;;;20.63;64.92;98949.69;5104068;28;20493;-80
2021/06/12 05:53:25;;;;;;;5.50;3.33;;;;;;;20.64;64.56;98943.13;5104936;28;20031;-80
2021/06/12 05:55:51;;;;;;;3.25;3.05;;;;;;;20.58;63.51;98952.66;5106360;28;20118;-83
2021/06/12 05:58:17;;;;;;;5.75;4.65;;;;;;;20.54;62.95;98950.97;5093280;28;20100;-85
2021/06/12 06:00:43;;;;;;;4.78;3.55;;;;;;;20.50;63.40;98945.44;5106647;28;20463;-86
2021/06/12 06:03:08;;;;;;;4.03;3.63;;;;;;;20.44;62.76;98947.59;5103838;28;20106;-87
2021/06/12 06:05:33;;;;;;;5.15;4.00;;;;;;;20.46;63.61;98952.72;5092629;28;20471;-80
2021/06/12 06:07:59;;;;;;;6.30;3.65;;;;;;;20.52;63.55;98948.63;5097186;28;20050;-80
2021/06/12 06:10:24;;;;;;;3.83;3.03;;;;;;;20.63;62.63;98943.50;5099566;28;20024;-79
2021/06/12 06:12:50;;;;;;;3.13;2.67;;;;;;;20.75;61.70;98956.25;5096901;28;20120;-80
2021/06/12 06:15:16;;;;;;;5.55;3.35;;;;;;;20.79;61.68;98947.06;5095581;28;20035;-84
2021/06/12 06:17:42;;;;;;;3.50;3.20;;;;;;;20.91;61.60;98946.22;5104650;28;20049;-85
2021/06/12 06:20:10;;;;;;;3.83;3.40;;;;;;;21.04;61.05;98954.31;5097434;28;20046;-87
2021/06/12 06:22:36;;;;;;;;;;;;;;;21.20;60.95;98946.16;5109736;28;20027;-85
2021/06/12 06:25:03;;;;;;;3.05;2.85;;;;;;;21.33;60.69;98953.09;5100342;28;19922;-80
2021/06/12 06:27:29;;;;;;;3.92;3.63;;;;;;;21.42;60.16;98955.63;5113528;28;20040;-82
2021/06/12 06:29:54;;;;;;;3.72;2.97;;;;;;;21.52;59.02;98944.25;5113377;27;20039;-84
2021/06/12 06:32:20;;;;;;;3.55;3.25;;;;;;;21.67;58.81;98947.34;5101475;28;20107;-84
2021/06/12 06:34:46;;;;;;;6.63;3.45;;;;;;;21.71;58.14;98954.44;5113613;28;20031;-76
2021/06/12 06:37:11;;;;;;;3.70;3.20;;;;;;;21.80;57.52;98948.00;5112899;28;20070;-79
2021/06/12 06:39:36;;;;;;;2.60;2.40;;;;;;;21.87;56.51;98943.53;5113444;28;20451;-81
2021/06/12 06:42:03;;;;;;;3.60;3.30;;;;;;;21.92;57.32;98947.91;5113426;28;20024;-80
2021/06/12 06:44:29;;;;;;;3.35;3.05;;;;;;;22.02;57.32;98941.13;5112933;28;20024;-80
2021/06/12 06:46:54;;;;;;;3.90;3.55;;;;;;;21.99;56.16;98950.00;5114145;28;20020;-83
2021/06/12 06:49:20;;;;;;;3.13;2.83;;;;;;;22.02;56.91;98944.63;5113571;28;20088;-86
2021/06/12 06:51:46;;;;;;;4.63;3.42;;;;;;;22.09;56.27;98951.38;5097369;28;20040;-81
2021/06/12 06:54:11;;;;;;;5.05;3.20;;;;;;;22.19;56.57;98948.09;5092669;28;20458;-88
2021/06/12 06:56:37;;;;;;;3.17;2.55;;;;;;;22.24;55.86;98950.56;5093288;28;20020;-89
2021/06/12 06:59:02;;;;;;;3.85;3.20;;;;;;;22.30;56.01;98948.31;5126941;27;20115;-83
2021/06/12 07:01:29;;;;;;;6.05;3.80;;;;;;;22.33;54.94;98939.44;5100381;27;20442;-87
2021/06/12 07:03:54;;;;;;;5.57;3.88;;;;;;;22.25;54.66;98946.66;5112974;28;20024;-87
2021/06/12 07:06:20;;;;;;;3.15;2.83;;;;;;;22.30;55.33;98949.13;5102548;28;20494;-82
2021/06/12 07:08:45;;;;;;;5.78;3.40;;;;;;;22.40;56.13;98950.53;5092678;28;20035;-80
2021/06/12 07:11:10;;;;;;;5.53;3.53;;;;;;;22.45;55.38;98943.97;5093903;28;20028;-80
2021/06/12 07:13:36;;;;;;;8.20;3.47;;;;;;;22.38;55.68;98945.41;5105643;28;20031;-78
2021/06/12 07:16:02;;;;;;;5.35;3.28;;;;;;;22.45;55.54;98941.25;5102934;28;20028;-79
2021/06/12 07:18:27;;;;;;;4.63;3.25;;;;;;;22.48;55.11;98937.81;5101788;28;20035;-81
2021/06/12 07:20:53;;;;;;;4.20;3.15;;;;;;;22.49;55.14;98939.41;5112472;28;20030;-81
2021/06/12 07:23:18;;;;;;;3.40;2.83;;;;;;;22.52;54.66;98934.03;5111892;28;20032;-82
2021/06/12 07:25:45;;;;;;;5.30;3.85;;;;;;;22.53;54.95;98938.34;5112353;28;20026;-81
2021/06/12 07:28:11;;;;;;;3.92;3.53;;;;;;;22.49;55.01;98932.00;5111391;27;20027;-84
2021/06/12 07:30:40;;;;;;;4.20;3.80;;;;;;;22.43;55.52;98933.44;5112493;28;20453;-86
2021/06/12 07:33:10;;;;;;;6.10;3.42;;;;;;;22.42;55.31;98931.88;5104535;28;20035;-81
2021/06/12 07:35:36;;;;;;;6.95;4.97;;;;;;;22.35;55.32;98929.78;5091739;28;20054;-79
2021/06/12 07:38:02;;;;;;;6.28;4.10;;;;;;;22.36;56.22;98933.28;5102379;28;20031;-86
2021/06/12 07:40:28;;;;;;;3.80;3.50;;;;;;;22.42;56.50;98922.91;5094351;28;20028;-88
2021/06/12 07:42:53;;;;;;;3.47;3.20;;;;;;;22.41;56.39;98918.63;5093068;28;20024;-83
2021/06/12 07:45:19;;;;;;;4.43;3.60;;;;;;;22.44;56.02;98926.84;5091541;28;20475;-87
2021/06/12 07:47:44;;;;;;;4.88;3.22;;;;;;;22.49;55.90;98925.78;5112137;27;20036;-84
2021/06/12 07:50:10;;;;;;;4.50;3.53;;;;;;;22.56;56.12;98920.47;5111807;28;20586;-85
2021/06/12 07:52:36;;;;;;;4.88;3.42;;;;;;;22.62;55.73;98920.97;5099411;27;20406;-84
2021/06/12 07:55:01;;;;;;;3.33;3.03;;;;;;;22.70;55.77;98923.47;5095017;28;20490;-84
2021/06/12 07:57:27;;;;;;;4.10;3.10;;;;;;;22.81;55.86;98918.25;5106114;28;20040;-86
2021/06/12 07:59:52;;;;;;;3.47;3.17;;;;;;;22.93;55.15;98925.44;5092494;28;20031;-82
2021/06/12 08:02:17;;;;;;;5.43;3.75;;;;;;;22.99;55.19;98920.47;5108998;28;20024;-82
2021/06/12 08:04:44;;;;;;;3.20;2.83;;;;;;;23.03;54.51;98922.13;5110307;28;20106;-81
2021/06/12 08:07:09;;;;;;;9.23;3.45;;;;;;;23.01;54.39;98921.69;5110323;28;20168;-81
2021/06/12 08:09:35;;;;;;;4.90;3.75;;;;;;;23.05;54.61;98926.44;5111732;28;20069;-85
2021/06/12 08:12:01;;;;;;;6.07;3.45;;;;;;;23.02;54.21;98917.00;5111538;28;20438;-86
2021/06/12 08:14:26;;;;;;;3.60;3.30;;;;;;;23.00;55.09;98916.63;5111483;28;20027;-86
2021/06/12 08:16:51;;;;;;;3.42;3.13;;;;;;;23.06;55.12;98912.44;5111942;28;20031;-84
2021/06/12 08:19:17;;;;;;;6.07;2.88;;;;;;;23.14;55.10;98907.88;5099555;28;20094;-89
2021/06/12 08:21:43;;;;;;;6.25;3.17;;;;;;;23.27;54.99;98911.25;5091495;28;20089;-89
2021/06/12 08:24:10;;;;;;;3.90;3.60;;;;;;;23.34;54.53;98905.91;5090358;28;20115;-87
2021/06/12 08:26:35;;;;;;;3.47;3.22;;;;;;;23.32;55.13;98905.47;5092583;28;20032;-91
2021/06/12 08:29:01;;;;;;;5.68;4.13;;;;;;;23.36;54.11;98905.53;5091930;28;20085;-87
2021/06/12 08:31:26;;;;;;;3.30;3.00;;;;;;;23.44;54.82;98904.50;5093531;28;20109;-85
2021/06/12 08:33:52;;;;;;;3.35;3.08;;;;;;;23.58;54.06;98901.19;5111014;28;20058;-88
2021/06/12 08:36:18;;;;;;;4.50;2.97;;;;;;;23.73;53.78;98904.91;5110147;28;20046;-88
2021/06/12 08:38:43;;;;;;;3.08;2.78;;;;;;;23.86;52.40;98900.81;5110912;28;20028;-90
2021/06/12 08:41:10;;;;;;;4.07;3.30;;;;;;;24.05;52.09;98905.41;5110910;28;20080;-81
2021/06/12 08:43:35;;;;;;;6.35;2.92;;;;;;;24.13;51.16;98898.06;5095109;28;20108;-83
2021/06/12 08:46:01;;;;;;;3.42;3.13;;;;;;;24.23;51.43;98900.16;5091404;28;20032;-84
2021/06/12 08:48:28;;;;;;;4.53;3.75;;;;;;;24.24;50.27;98898.22;5091694;28;20057;-85
2021/06/12 08:50:55;;;;;;;3.28;2.80;;;;;;;24.29;50.66;98898.69;5097542;28;20059;-86
2021/06/12 08:53:20;;;;;;;4.32;3.50;;;;;;;24.31;49.37;98901.03;5101947;28;20028;-81
2021/06/12 08:55:46;;;;;;;3.22;2.92;;;;;;;24.23;48.33;98893.91;5112620;27;20096;-85
2021/06/12 08:58:12;;;;;;;3.15;2.80;;;;;;;24.21;48.80;98907.94;5106051;27;20390;-78
2021/06/12 09:00:39;;;;;;;3.13;2.92;;;;;;;24.15;48.94;98895.75;5104106;28;20036;-81
2021/06/12 09:03:27;;;;;;;3.15;2.88;;;;;;;24.13;49.07;98898.06;5107543;28;20036;-84
2021/06/12 09:05:55;;;;;;;3.40;2.97;;;;;;;24.11;48.99;98897.69;5094623;27;20028;-83
2021/06/12 09:08:25;;;;;;;3.38;3.08;;;;;;;24.10;48.21;98888.69;5090839;28;20127;-84
2021/06/12 09:10:57;;;;;;;2.95;2.63;;;;;;;24.09;47.52;98894.53;5100618;28;20024;-86
2021/06/12 09:13:42;;;;;;;3.47;3.08;;;;;;;24.09;48.47;98889.81;5098390;27;20118;-86
2021/06/12 09:16:32;;;;;;;2.70;2.50;;;;;;;24.10;49.08;98890.63;5098620;28;20051;-88
2021/06/12 09:19:04;;;;;;;2.92;2.60;;;;;;;24.05;47.90;98882.78;5109123;28;20054;-91
2021/06/12 09:21:31;;;;;;;3.13;2.65;;;;;;;24.11;48.80;98878.56;5100099;28;20103;-88
2021/06/12 09:23:58;;;;;;;2.70;2.50;;;;;;;24.09;48.54;98878.91;5109656;28;20062;-89
2021/06/12 09:26:51;;;;;;;4.15;2.53;;;;;;;24.13;48.75;98871.56;5110818;28;20035;-86
2021/06/12 09:29:19;;;;;;;3.55;3.10;;;;;;;24.08;48.77;98880.09;5097597;28;20038;-88
2021/06/12 09:31:46;;;;;;;;;;;;;;;24.11;48.35;98878.56;5110733;28;20031;-90
2021/06/12 09:34:15;;;;;;;3.80;2.50;;;;;;;24.03;48.29;98871.41;5110037;28;20302;-88
2021/06/12 09:36:42;;;;;;;2.95;2.75;;;;;;;24.07;48.35;98881.25;5110224;28;20028;-89
2021/06/12 09:39:15;;;;;;;2.47;2.25;;;;;;;24.02;47.33;98876.06;5110582;28;20023;-90
2021/06/12 09:41:46;;;;;;;2.67;2.30;;;;;;;24.00;46.63;98872.94;5114288;28;20176;-88
2021/06/12 09:44:27;;;;;;;3.35;2.20;;;;;;;24.06;47.75;98876.94;5114757;28;20024;-86
2021/06/12 09:46:53;;;;;;;3.10;1.92;;;;;;;24.14;45.53;98878.59;5114351;28;20043;-86
2021/06/12 09:49:29;;;;;;;2.20;1.80;;;;;;;24.19;45.13;98872.00;5114050;28;20028;-85
2021/06/12 09:52:05;;;;;;;2.70;2.42;;;;;;;24.25;45.27;98869.72;5114275;28;20023;-86
2021/06/12 09:54:36;;;;;;;2.67;2.45;;;;;;;24.26;44.28;98877.56;5114011;28;20031;-84
2021/06/12 09:57:02;;;;;;;2.22;2.10;;;;;;;24.29;44.58;98876.00;5114252;28;20032;-86
2021/06/12 09:59:27;;;;;;;3.03;2.83;;;;;;;24.36;44.92;98878.06;5113750;28;20088;-84
2021/06/12 10:01:53;;;;;;;2.50;2.30;;;;;;;24.39;46.43;98875.38;5114272;28;20489;-86
2021/06/12 10:04:19;;;;;;;3.30;3.00;;;;;;;24.48;45.72;98871.56;5113968;28;20031;-88
2021/06/12 10:06:44;;;;;;;2.65;2.45;;;;;;;24.57;46.53;98861.91;5113943;28;20132;-88
2021/06/12 10:09:10;;;;;;;2.30;2.15;;;;;;;24.66;45.06;98863.53;5113965;28;20069;-83
2021/06/12 10:11:36;;;;;;;3.25;2.95;;;;;;;24.64;44.79;98858.44;5113565;28;20497;-86
2021/06/12 10:14:03;;;;;;;2.67;2.47;;;;;;;24.67;44.46;98854.19;5113885;28;20020;-86
2021/06/12 10:16:31;;;;;;;3.47;2.53;;;;;;;24.66;43.71;98863.53;5113837;28;20035;-84
2021/06/12 10:18:58;;;;;;;2.45;2.25;;;;;;;24.53;43.80;98849.34;5113780;28;20264;-87
2021/06/12 10:21:24;;;;;;;3.15;2.85;;;;;;;24.53;43.80;98852.09;5113561;28;20405;-91
2021/06/12 10:23:50;;;;;;;2.78;2.58;;;;;;;24.50;43.02;98850.09;5113502;28;20036;-86
2021/06/12 10:26:18;;;;;;;2.78;2.58;;;;;;;24.45;42.20;98851.22;5113507;28;20471;-86
2021/06/12 10:28:44;;;;;;;2.75;2.55;;;;;;;24.42;42.94;98832.84;5113625;28;20492;-86
2021/06/12 10:31:21;;;;;;;2.58;2.00;;;;;;;24.38;43.56;98832.78;5113500;28;20102;-87
2021/06/12 10:33:48;;;;;;;2.85;2.60;;;;;;;24.40;43.49;98829.69;5113705;28;20028;-85
2021/06/12 10:36:19;;;;;;;2.95;2.72;;;;;;;24.43;44.85;98835.19;5113491;28;20028;-87
2021/06/12 10:38:46;;;;;;;3.05;2.85;;;;;;;24.45;45.21;98830.13;5113368;28;20027;-89
2021/06/12 10:41:23;;;;;;;2.78;2.55;;;;;;;24.52;45.12;98834.88;5113289;28;20028;-89
2021/06/12 10:43:51;;;;;;;4.15;3.17;;;;;;;24.55;45.42;98827.91;5113155;28;20504;-88
2021/06/12 10:46:24;;;;;;;4.32;3.88;;;;;;;24.52;45.68;98829.41;5112611;28;20081;-89
2021/06/12 10:49:01;;;;;;;5.50;4.13;;;;;;;24.44;45.73;98833.25;5113062;28;20086;-89
2021/06/12 10:51:26;;;;;;;8.27;3.95;;;;;;;24.42;46.84;98822.69;5112115;28;20027;-88
2021/06/12 10:54:23;;;;;;;4.50;4.10;;;;;;;24.49;47.17;98823.94;5113051;28;20028;-89
2021/06/12 10:57:04;;;;;;;6.07;4.07;;;;;;;24.50;47.39;98820.81;5113096;28;20051;-88
2021/06/12 10:59:32;;;;;;;4.40;3.78;;;;;;;24.54;46.57;98823.59;5112784;28;20030;-88
2021/06/12 11:02:11;;;;;;;4.07;2.97;;;;;;;24.57;46.67;98826.34;5112930;28;20081;-87
2021/06/12 11:05:01;;;;;;;4.45;3.50;;;;;;;24.64;47.18;98822.13;5112601;28;20024;-87
2021/06/12 11:07:29;;;;;;;4.20;3.10;;;;;;;24.70;46.76;98823.38;5112615;28;20019;-87
2021/06/12 11:10:22;;;;;;;4.60;3.42;;;;;;;24.69;46.82;98824.53;5112516;28;20118;-87
2021/06/12 11:12:49;;;;;;;4.93;3.22;;;;;;;24.72;46.27;98819.09;5099454;28;20067;-86
2021/06/12 11:15:21;;;;;;;3.90;3.00;;;;;;;24.72;46.48;98804.66;5112866;28;20035;-86
2021/06/12 11:18:13;;;;;;;6.07;3.22;;;;;;;24.75;47.03;98812.84;5112541;28;20428;-87
2021/06/12 11:20:45;;;;;;;2.80;2.47;;;;;;;24.80;46.29;98800.03;5112257;28;20040;-87
2021/06/12 11:23:14;;;;;;;2.97;2.35;;;;;;;24.82;46.25;98794.97;5112062;28;20023;-87
2021/06/12 11:25:43;;;;;;;2.13;1.98;;;;;;;24.84;44.86;98785.22;5112162;28;20024;-87
2021/06/12 11:28:29;;;;;;;1.95;1.75;;;;;;;24.87;43.82;98789.13;5112384;28;20118;-87
2021/06/12 11:31:28;;;;;;;2.05;1.95;;;;;;;24.91;44.10;98776.28;5112118;28;20136;-87
2021/06/12 11:34:16;;;;;;;2.60;2.40;;;;;;;25.08;44.01;98774.81;5112305;28;20027;-87
2021/06/12 11:36:43;;;;;;;1.98;1.88;;;;;;;25.12;42.47;98777.59;5112101;28;20110;-87
2021/06/12 11:39:09;;;;;;;3.85;2.10;;;;;;;25.16;41.36;98784.66;5112098;28;20023;-88